createdAt,value
2022-10-27T00:02:39.657Z,77.26
2022-10-27T00:05:23.191Z,77.33
2022-10-27T00:08:06.585Z,77.17
2022-10-27T00:10:57.836Z,77.15
2022-10-27T00:13:42.098Z,76.93
2022-10-27T00:16:25.253Z,76.90
2022-10-27T00:19:08.103Z,77.01
2022-10-27T00:21:51.807Z,77.19
2022-10-27T00:24:34.710Z,77.08
2022-10-27T00:27:17.633Z,77.18
2022-10-27T00:30:01.856Z,76.92
2022-10-27T00:32:46.012Z,77.14
2022-10-27T00:35:28.852Z,77.30
2022-10-27T00:38:11.699Z,77.33
2022-10-27T00:40:54.611Z,77.35
2022-10-27T00:43:39.718Z,77.41
2022-10-27T00:46:32.539Z,77.43
2022-10-27T00:49:18.668Z,77.36
2022-10-27T00:52:05.356Z,77.22
2022-10-27T00:54:48.883Z,77.20
2022-10-27T00:57:33.560Z,77.24
2022-10-27T01:00:17.447Z,77.31
2022-10-27T01:03:01.776Z,77.50
2022-10-27T01:05:45.911Z,77.56
2022-10-27T01:08:28.808Z,77.67
2022-10-27T01:11:11.696Z,77.56
2022-10-27T01:13:54.868Z,77.59
2022-10-27T01:16:46.696Z,77.63
2022-10-27T01:19:52.541Z,77.94
2022-10-27T01:22:43.142Z,78.15
2022-10-27T01:26:07.410Z,78.03
2022-10-27T01:29:22.500Z,77.97
2022-10-27T01:32:25.615Z,78.01
2022-10-27T01:35:15.907Z,77.96
2022-10-27T01:38:07.534Z,78.04
2022-10-27T01:41:01.123Z,77.78
2022-10-27T01:43:46.711Z,77.86
2022-10-27T01:46:30.018Z,78.18
2022-10-27T01:49:14.258Z,78.04
2022-10-27T01:52:05.664Z,78.14
2022-10-27T01:54:48.539Z,78.14
2022-10-27T01:57:43.277Z,78.31
2022-10-27T02:00:26.182Z,77.98
2022-10-27T02:03:14.667Z,78.03
2022-10-27T02:06:08.615Z,78.46
2022-10-27T02:08:55.973Z,78.00
2022-10-27T02:11:42.120Z,78.18
2022-10-27T02:14:26.087Z,78.36
2022-10-27T02:17:12.273Z,78.34
2022-10-27T02:19:58.023Z,78.31
2022-10-27T02:22:46.220Z,78.54
2022-10-27T02:25:40.911Z,78.88
2022-10-27T02:28:29.254Z,78.94
2022-10-27T02:31:14.684Z,78.88
2022-10-27T02:33:59.033Z,78.99
2022-10-27T02:36:42.056Z,79.03
2022-10-27T02:39:26.483Z,78.92
2022-10-27T02:42:09.333Z,79.01
2022-10-27T02:44:52.267Z,78.91
2022-10-27T02:47:35.071Z,78.81
2022-10-27T02:50:17.949Z,78.79
2022-10-27T02:53:00.822Z,78.90
2022-10-27T02:55:45.096Z,79.17
2022-10-27T02:58:27.905Z,79.29
2022-10-27T03:01:10.988Z,79.46
2022-10-27T03:03:53.919Z,79.77
2022-10-27T03:06:36.787Z,79.75
2022-10-27T03:09:19.605Z,79.29
2022-10-27T03:12:03.993Z,79.22
2022-10-27T03:14:46.826Z,79.11
2022-10-27T03:17:29.707Z,78.93
2022-10-27T03:20:13.394Z,78.61
2022-10-27T03:22:56.428Z,78.79
2022-10-27T03:25:47.322Z,79.08
2022-10-27T03:28:35.377Z,79.11
2022-10-27T03:31:18.214Z,79.31
2022-10-27T03:34:01.154Z,79.29
2022-10-27T03:36:44.000Z,79.12
2022-10-27T03:39:27.031Z,78.94
2022-10-27T03:42:10.050Z,78.84
2022-10-27T03:44:54.231Z,78.97
2022-10-27T03:47:37.503Z,78.69
2022-10-27T03:50:20.295Z,78.80
2022-10-27T03:53:03.846Z,78.82
2022-10-27T03:55:49.026Z,79.09
2022-10-27T03:58:31.940Z,78.97
2022-10-27T04:01:16.392Z,79.07
2022-10-27T04:03:59.329Z,79.00
2022-10-27T04:06:42.279Z,79.04
2022-10-27T04:09:25.092Z,78.95
2022-10-27T04:12:08.348Z,78.88
2022-10-27T04:14:51.177Z,78.71
2022-10-27T04:17:35.441Z,78.86
2022-10-27T04:20:18.327Z,79.15
2022-10-27T04:23:01.401Z,78.81
2022-10-27T04:25:45.420Z,78.99
2022-10-27T04:28:28.295Z,78.74
2022-10-27T04:31:11.191Z,78.82
2022-10-27T04:33:55.493Z,78.80
2022-10-27T04:36:38.348Z,78.70
2022-10-27T04:39:21.227Z,78.45
2022-10-27T04:42:04.045Z,78.79
2022-10-27T04:44:47.474Z,78.65
2022-10-27T04:47:30.338Z,78.79
2022-10-27T04:50:15.642Z,78.85
2022-10-27T04:53:00.127Z,78.79
2022-10-27T04:55:42.988Z,79.05
2022-10-27T04:58:25.891Z,79.06
2022-10-27T05:01:09.541Z,79.12
2022-10-27T05:03:52.468Z,79.23
2022-10-27T05:06:36.701Z,79.04
2022-10-27T05:09:19.555Z,79.08
2022-10-27T05:12:02.482Z,79.04
2022-10-27T05:14:45.303Z,78.78
2022-10-27T05:17:28.214Z,79.09
2022-10-27T05:20:11.740Z,79.05
2022-10-27T05:22:56.064Z,79.48
2022-10-27T05:25:39.020Z,79.29
2022-10-27T05:28:22.509Z,79.40
2022-10-27T05:31:05.766Z,79.08
2022-10-27T05:33:48.718Z,79.08
2022-10-27T05:36:31.545Z,79.01
2022-10-27T05:39:15.809Z,79.06
2022-10-27T05:41:58.674Z,79.06
2022-10-27T05:44:41.557Z,79.18
2022-10-27T05:47:24.354Z,79.02
2022-10-27T05:50:08.036Z,79.21
2022-10-27T05:52:51.125Z,79.03
2022-10-27T05:55:36.493Z,79.04
2022-10-27T05:58:19.418Z,79.03
2022-10-27T06:01:02.305Z,79.05
2022-10-27T06:03:45.265Z,79.31
2022-10-27T06:06:28.396Z,79.19
2022-10-27T06:09:11.262Z,79.18
2022-10-27T06:11:55.578Z,79.09
2022-10-27T06:14:38.464Z,79.44
2022-10-27T06:17:21.344Z,79.30
2022-10-27T06:20:04.819Z,79.40
2022-10-27T06:22:48.323Z,79.37
2022-10-27T06:25:31.316Z,79.38
2022-10-27T06:28:15.616Z,79.51
2022-10-27T06:30:58.947Z,79.63
2022-10-27T06:33:41.800Z,79.48
2022-10-27T06:36:25.276Z,79.55
2022-10-27T06:39:08.113Z,79.50
2022-10-27T06:41:51.005Z,79.82
2022-10-27T06:44:40.203Z,80.17
2022-10-27T06:47:23.070Z,80.14
2022-10-27T06:50:07.470Z,80.12
2022-10-27T06:52:51.525Z,80.39
2022-10-27T06:55:34.946Z,80.11
2022-10-27T06:58:17.861Z,80.05
2022-10-27T07:01:02.388Z,80.08
2022-10-27T07:03:45.590Z,80.08
2022-10-27T07:06:28.410Z,80.14
2022-10-27T07:09:11.438Z,79.92
2022-10-27T07:11:54.310Z,79.81
2022-10-27T07:14:37.185Z,80.16
2022-10-27T07:20:10.154Z,80.40
2022-10-27T07:22:53.378Z,80.09
2022-10-27T07:25:36.761Z,80.18
2022-10-27T07:28:19.697Z,80.18
2022-10-27T07:31:02.539Z,80.13
2022-10-27T07:33:46.789Z,80.34
2022-10-27T07:36:29.627Z,80.38
2022-10-27T07:39:12.490Z,80.10
2022-10-27T07:41:55.338Z,80.20
2022-10-27T07:44:38.275Z,80.16
2022-10-27T07:47:21.142Z,79.98
2022-10-27T07:50:06.553Z,80.10
2022-10-27T07:52:51.605Z,80.16
2022-10-27T07:55:36.656Z,80.25
2022-10-27T07:58:19.770Z,80.29
2022-10-27T08:01:04.320Z,80.42
2022-10-27T08:03:51.116Z,80.39
2022-10-27T08:06:35.641Z,80.47
2022-10-27T08:09:19.979Z,80.29
2022-10-27T08:12:03.050Z,79.89
2022-10-27T08:14:45.873Z,79.68
2022-10-27T08:17:30.186Z,79.63
2022-10-27T08:20:13.124Z,79.23
2022-10-27T08:22:58.442Z,79.01
2022-10-27T08:25:42.041Z,78.33
2022-10-27T08:28:25.168Z,78.31
2022-10-27T08:31:08.645Z,77.77
2022-10-27T08:33:51.462Z,78.37
2022-10-27T08:36:39.139Z,77.95
2022-10-27T08:39:23.327Z,77.35
2022-10-27T08:42:13.598Z,76.98
2022-10-27T08:45:02.676Z,75.99
2022-10-27T08:47:45.746Z,76.39
2022-10-27T08:50:31.564Z,75.90
2022-10-27T08:53:19.768Z,76.08
2022-10-27T08:56:10.338Z,75.44
2022-10-27T08:58:53.354Z,74.37
2022-10-27T09:01:46.001Z,74.82
2022-10-27T09:04:48.708Z,74.05
2022-10-27T09:07:40.318Z,73.91
2022-10-27T09:10:41.240Z,73.48
2022-10-27T09:13:43.262Z,72.21
2022-10-27T09:16:34.197Z,72.17
2022-10-27T09:19:23.696Z,71.30
2022-10-27T09:22:13.431Z,71.38
2022-10-27T09:25:00.740Z,71.39
2022-10-27T09:27:45.149Z,71.20
2022-10-27T09:30:36.110Z,70.78
2022-10-27T09:33:23.856Z,67.53
2022-10-27T09:36:15.341Z,68.58
2022-10-27T09:38:58.256Z,67.78
2022-10-27T09:41:41.318Z,66.27
2022-10-27T09:44:26.759Z,66.31
2022-10-27T09:47:11.477Z,67.07
2022-10-27T09:49:54.345Z,65.87
2022-10-27T09:52:42.718Z,64.21
2022-10-27T09:55:49.971Z,64.59
2022-10-27T09:58:33.043Z,64.94
2022-10-27T10:01:15.951Z,63.73
2022-10-27T10:04:10.383Z,62.46
2022-10-27T10:06:57.163Z,64.05
2022-10-27T10:09:40.501Z,64.12
2022-10-27T10:12:25.048Z,63.65
2022-10-27T10:15:21.083Z,61.85
2022-10-27T10:18:05.961Z,62.31
2022-10-27T10:20:57.710Z,60.48
2022-10-27T10:23:53.314Z,61.61
2022-10-27T10:26:36.229Z,61.54
2022-10-27T10:29:28.272Z,61.60
2022-10-27T10:32:14.987Z,61.82
2022-10-27T10:35:00.638Z,61.84
2022-10-27T10:37:46.657Z,61.40
2022-10-27T10:40:30.802Z,60.98
2022-10-27T10:43:15.994Z,61.04
2022-10-27T10:45:59.693Z,60.80
2022-10-27T10:48:47.345Z,60.31
2022-10-27T10:51:32.862Z,59.62
2022-10-27T10:54:22.759Z,58.93
2022-10-27T10:57:06.202Z,58.26
2022-10-27T10:59:53.517Z,58.72
2022-10-27T11:02:36.417Z,59.25
2022-10-27T11:08:21.566Z,57.26
2022-10-27T11:11:12.344Z,57.72
2022-10-27T11:14:00.188Z,58.25
2022-10-27T11:16:48.395Z,56.89
2022-10-27T11:19:38.980Z,57.17
2022-10-27T11:22:23.168Z,56.85
2022-10-27T11:25:08.674Z,56.50
2022-10-27T11:28:04.095Z,55.90
2022-10-27T11:30:54.591Z,55.85
2022-10-27T11:33:47.332Z,56.46
2022-10-27T11:36:37.508Z,55.86
2022-10-27T11:39:26.480Z,55.38
2022-10-27T11:42:19.693Z,54.70
2022-10-27T11:45:12.512Z,53.90
2022-10-27T11:48:00.769Z,54.20
2022-10-27T11:50:49.942Z,54.76
2022-10-27T11:53:36.292Z,54.91
2022-10-27T11:56:36.560Z,53.63
2022-10-27T11:59:23.969Z,54.05
2022-10-27T12:02:27.374Z,52.22
2022-10-27T12:05:14.027Z,53.05
2022-10-27T12:08:08.811Z,52.42
2022-10-27T12:11:06.475Z,51.70
2022-10-27T12:13:56.824Z,52.47
2022-10-27T12:16:46.429Z,52.26
2022-10-27T12:19:35.783Z,51.88
2022-10-27T12:22:23.923Z,51.95
2022-10-27T12:25:12.717Z,52.48
2022-10-27T12:27:58.385Z,51.60
2022-10-27T12:30:46.058Z,51.41
2022-10-27T12:33:35.522Z,51.31
2022-10-27T12:36:26.717Z,50.57
2022-10-27T12:39:20.579Z,50.95
2022-10-27T12:42:10.754Z,50.91
2022-10-27T12:45:02.349Z,49.73
2022-10-27T12:47:56.654Z,49.82
2022-10-27T12:50:45.522Z,50.35
2022-10-27T12:53:43.784Z,50.03
2022-10-27T12:56:32.209Z,49.99
2022-10-27T12:59:25.290Z,50.01
2022-10-27T13:02:12.462Z,49.75
2022-10-27T13:05:33.759Z,49.65
2022-10-27T13:08:42.701Z,49.49
2022-10-27T13:11:52.441Z,49.11
2022-10-27T13:15:11.144Z,49.16
2022-10-27T13:18:03.111Z,49.33
2022-10-27T13:20:53.492Z,49.40
2022-10-27T13:23:46.181Z,48.94
2022-10-27T13:26:34.604Z,49.00
2022-10-27T13:29:29.480Z,49.14
2022-10-27T13:32:39.573Z,49.15
2022-10-27T13:35:33.945Z,48.26
2022-10-27T13:38:26.739Z,48.55
2022-10-27T13:41:10.970Z,48.98
2022-10-27T13:43:59.675Z,48.54
2022-10-27T13:47:16.194Z,48.35
2022-10-27T13:50:00.645Z,49.35
2022-10-27T13:52:43.489Z,49.17
2022-10-27T13:55:34.918Z,49.24
2022-10-27T13:58:33.590Z,49.00
2022-10-27T14:01:25.705Z,49.02
2022-10-27T14:04:40.167Z,48.89
2022-10-27T14:07:26.299Z,49.09
2022-10-27T14:10:14.613Z,49.13
2022-10-27T14:12:59.191Z,49.86
2022-10-27T14:15:43.490Z,50.33
2022-10-27T14:18:30.753Z,49.88
2022-10-27T14:21:19.147Z,50.34
2022-10-27T14:24:08.265Z,50.55
2022-10-27T14:26:58.298Z,50.81
2022-10-27T14:29:41.163Z,50.91
2022-10-27T14:32:27.577Z,51.04
2022-10-27T14:35:22.562Z,51.29
2022-10-27T14:38:05.481Z,51.71
2022-10-27T14:40:49.168Z,51.85
2022-10-27T14:43:35.372Z,51.96
2022-10-27T14:46:21.951Z,52.01
2022-10-27T14:49:08.314Z,52.21
2022-10-27T14:51:51.405Z,51.81
2022-10-27T14:54:35.024Z,52.10
2022-10-27T14:57:38.744Z,52.01
2022-10-27T15:00:24.589Z,52.06
2022-10-27T15:03:09.975Z,52.29
2022-10-27T15:05:54.203Z,52.26
2022-10-27T15:08:37.095Z,52.52
2022-10-27T15:11:23.532Z,52.64
2022-10-27T15:14:06.505Z,52.49
2022-10-27T15:16:49.503Z,52.94
2022-10-27T15:19:32.496Z,53.52
2022-10-27T15:22:18.845Z,53.78
2022-10-27T15:25:02.490Z,53.33
2022-10-27T15:27:46.275Z,53.46
2022-10-27T15:30:29.530Z,53.60
2022-10-27T15:33:33.611Z,54.13
2022-10-27T15:36:24.326Z,54.09
2022-10-27T15:39:12.326Z,54.43
2022-10-27T15:41:55.261Z,54.97
2022-10-27T15:44:38.239Z,55.28
2022-10-27T15:47:42.254Z,55.62
2022-10-27T15:50:27.454Z,55.91
2022-10-27T15:53:16.625Z,56.17
2022-10-27T15:56:03.227Z,56.24
2022-10-27T15:59:09.816Z,57.64
2022-10-27T16:01:56.227Z,57.70
2022-10-27T16:04:40.942Z,57.88
2022-10-27T16:07:33.791Z,57.84
2022-10-27T16:10:16.703Z,58.18
2022-10-27T16:13:00.889Z,58.61
2022-10-27T16:15:45.940Z,59.06
2022-10-27T16:18:28.836Z,59.06
2022-10-27T16:21:20.310Z,59.20
2022-10-27T16:24:13.820Z,59.21
2022-10-27T16:26:56.872Z,59.93
2022-10-27T16:29:41.795Z,60.33
2022-10-27T16:32:24.661Z,60.53
2022-10-27T16:35:08.003Z,60.25
2022-10-27T16:37:50.871Z,60.65
2022-10-27T16:40:38.193Z,60.72
2022-10-27T16:43:27.170Z,61.08
2022-10-27T16:46:11.381Z,61.29
2022-10-27T16:48:54.363Z,61.19
2022-10-27T16:51:37.190Z,61.71
2022-10-27T16:54:20.141Z,61.55
2022-10-27T16:57:03.122Z,61.93
2022-10-27T16:59:45.969Z,62.21
2022-10-27T17:02:30.327Z,62.05
2022-10-27T17:05:13.186Z,62.37
2022-10-27T17:07:56.102Z,62.18
2022-10-27T17:10:39.024Z,62.22
2022-10-27T17:13:22.321Z,62.52
2022-10-27T17:16:06.578Z,62.23
2022-10-27T17:18:50.814Z,62.45
2022-10-27T17:21:35.111Z,62.65
2022-10-27T17:24:18.019Z,62.78
2022-10-27T17:27:00.942Z,62.70
2022-10-27T17:29:43.825Z,62.73
2022-10-27T17:32:26.698Z,62.88
2022-10-27T17:35:11.163Z,63.14
2022-10-27T17:37:54.250Z,63.04
2022-10-27T17:40:38.866Z,63.10
2022-10-27T17:43:22.119Z,63.49
2022-10-27T17:46:06.895Z,63.37
2022-10-27T17:48:50.677Z,64.20
2022-10-27T17:51:35.080Z,63.49
2022-10-27T17:54:18.051Z,63.59
2022-10-27T17:57:00.917Z,63.95
2022-10-27T17:59:44.082Z,63.93
2022-10-27T18:02:27.551Z,64.00
2022-10-27T18:05:10.679Z,64.23
2022-10-27T18:07:55.059Z,64.36
2022-10-27T18:10:38.330Z,64.59
2022-10-27T18:13:21.224Z,64.51
2022-10-27T18:16:08.413Z,64.70
2022-10-27T18:18:52.285Z,64.52
2022-10-27T18:21:37.695Z,64.84
2022-10-27T18:24:22.458Z,64.31
2022-10-27T18:27:05.253Z,65.01
2022-10-27T18:29:48.193Z,64.66
2022-10-27T18:32:31.016Z,64.56
2022-10-27T18:35:13.964Z,64.56
2022-10-27T18:37:56.872Z,64.75
2022-10-27T18:40:41.108Z,64.72
2022-10-27T18:43:24.128Z,65.03
2022-10-27T18:46:08.959Z,65.19
2022-10-27T18:48:52.467Z,65.63
2022-10-27T18:51:37.369Z,64.93
2022-10-27T18:54:20.759Z,65.19
2022-10-27T18:57:05.075Z,65.63
2022-10-27T18:59:47.952Z,65.76
2022-10-27T19:02:30.883Z,65.84
2022-10-27T19:05:13.877Z,65.55
2022-10-27T19:07:56.751Z,65.72
2022-10-27T19:10:39.761Z,65.95
2022-10-27T19:13:24.046Z,65.94
2022-10-27T19:16:08.761Z,66.05
2022-10-27T19:18:51.659Z,66.17
2022-10-27T19:21:34.963Z,66.10
2022-10-27T19:24:18.057Z,65.94
2022-10-27T19:27:00.997Z,66.08
2022-10-27T19:29:46.175Z,66.04
2022-10-27T19:32:29.053Z,66.00
2022-10-27T19:35:12.008Z,66.07
2022-10-27T19:37:55.281Z,66.09
2022-10-27T19:40:38.449Z,66.13
2022-10-27T19:43:23.618Z,66.07
2022-10-27T19:46:08.914Z,65.71
2022-10-27T19:48:52.514Z,65.88
2022-10-27T19:51:37.153Z,65.65
2022-10-27T19:54:21.219Z,65.88
2022-10-27T19:57:04.167Z,65.55
2022-10-27T19:59:47.105Z,65.60
2022-10-27T20:02:32.485Z,65.77
2022-10-27T20:05:15.623Z,65.69
2022-10-27T20:07:58.796Z,65.53
2022-10-27T20:10:41.635Z,65.62
2022-10-27T20:13:24.531Z,65.54
2022-10-27T20:16:08.104Z,65.68
2022-10-27T20:18:52.812Z,65.60
2022-10-27T20:21:35.742Z,65.62
2022-10-27T20:24:20.449Z,65.64
2022-10-27T20:27:03.129Z,65.50
2022-10-27T20:29:46.031Z,65.50
2022-10-27T20:32:32.127Z,65.44
2022-10-27T20:35:16.485Z,65.45
2022-10-27T20:37:59.374Z,65.06
2022-10-27T20:40:43.023Z,65.22
2022-10-27T20:43:26.002Z,65.43
2022-10-27T20:46:09.751Z,65.15
2022-10-27T20:48:53.248Z,64.97
2022-10-27T20:51:37.599Z,64.94
2022-10-27T20:54:20.462Z,64.97
2022-10-27T20:57:03.422Z,64.97
2022-10-27T20:59:46.276Z,64.92
2022-10-27T21:02:29.182Z,64.77
2022-10-27T21:05:12.144Z,64.60
2022-10-27T21:07:56.379Z,64.56
2022-10-27T21:10:41.853Z,64.65
2022-10-27T21:13:24.819Z,64.40
2022-10-27T21:16:08.242Z,64.27
2022-10-27T21:18:52.519Z,64.64
2022-10-27T21:21:35.816Z,64.52
2022-10-27T21:24:20.022Z,64.51
2022-10-27T21:27:02.916Z,64.17
2022-10-27T21:29:45.857Z,64.31
2022-10-27T21:32:28.733Z,64.11
2022-10-27T21:35:11.612Z,63.92
2022-10-27T21:37:55.693Z,64.08
2022-10-27T21:40:39.875Z,63.65
2022-10-27T21:43:22.759Z,63.61
2022-10-27T21:46:06.007Z,63.75
2022-10-27T21:48:49.369Z,63.57
2022-10-27T21:51:32.533Z,63.54
2022-10-27T21:54:16.235Z,63.25
2022-10-27T21:57:00.475Z,63.42
2022-10-27T21:59:43.334Z,63.12
2022-10-27T22:02:26.271Z,63.09
2022-10-27T22:05:09.799Z,62.97
2022-10-27T22:07:52.975Z,63.07
2022-10-27T22:10:36.213Z,62.92
2022-10-27T22:13:21.283Z,62.83
2022-10-27T22:16:04.883Z,62.21
2022-10-27T22:18:48.604Z,62.56
2022-10-27T22:21:34.414Z,62.40
2022-10-27T22:24:17.854Z,62.66
2022-10-27T22:27:00.772Z,62.24
2022-10-27T22:29:45.190Z,62.34
2022-10-27T22:32:29.706Z,62.51
2022-10-27T22:35:12.708Z,62.31
2022-10-27T22:37:55.794Z,62.56
2022-10-27T22:40:38.895Z,62.41
2022-10-27T22:43:21.810Z,62.40
2022-10-27T22:46:07.607Z,62.27
2022-10-27T22:48:50.911Z,62.06
2022-10-27T22:51:33.833Z,62.20
2022-10-27T22:54:16.748Z,61.94
2022-10-27T22:56:59.618Z,61.77
2022-10-27T22:59:42.518Z,61.80
2022-10-27T23:02:26.863Z,61.73
2022-10-27T23:05:09.805Z,61.43
2022-10-27T23:07:52.676Z,61.47
2022-10-27T23:10:35.502Z,61.48
2022-10-27T23:13:18.380Z,61.18
2022-10-27T23:16:02.852Z,61.06
2022-10-27T23:18:47.185Z,61.25
2022-10-27T23:21:30.815Z,61.02
2022-10-27T23:24:15.257Z,61.07
2022-10-27T23:26:58.079Z,61.01
2022-10-27T23:29:40.994Z,61.11
2022-10-27T23:32:23.961Z,60.80
2022-10-27T23:35:09.712Z,60.65
2022-10-27T23:37:53.106Z,60.70
2022-10-27T23:40:36.318Z,60.90
2022-10-27T23:43:19.262Z,60.87
2022-10-27T23:46:03.494Z,60.91
2022-10-27T23:48:46.661Z,60.61
2022-10-27T23:51:30.917Z,60.65
2022-10-27T23:54:13.735Z,60.40
2022-10-27T23:56:56.679Z,60.67
2022-10-27T23:59:41.100Z,60.31
